sensor_id;sensor_type;location;lat;lon;timestamp;pressure;altitude;pressure_sealevel;temperature;humidity
41703;BME280;861;48.808;9.006;2023-08-31T00:00:11;96577.06;;;15.82;85.78
41703;BME280;861;48.808;9.006;2023-08-31T00:02:40;96575.25;;;15.91;84.54
41703;BME280;861;48.808;9.006;2023-08-31T00:05:07;96575.09;;;16.11;84.22
41703;BME280;861;48.808;9.006;2023-08-31T00:07:34;96565.72;;;16.24;83.28
41703;BME280;861;48.808;9.006;2023-08-31T00:10:01;96582.22;;;16.24;82.95
41703;BME280;861;48.808;9.006;2023-08-31T00:12:35;96585.47;;;16.19;83.09
41703;BME280;861;48.808;9.006;2023-08-31T00:15:03;96580.94;;;16.13;83.19
41703;BME280;861;48.808;9.006;2023-08-31T00:17:33;96586.72;;;16.02;82.85
41703;BME280;861;48.808;9.006;2023-08-31T00:19:59;96591.25;;;16.09;82.76
41703;BME280;861;48.808;9.006;2023-08-31T00:22:26;96588.53;;;16.09;81.95
41703;BME280;861;48.808;9.006;2023-08-31T00:24:52;96594.16;;;16.18;82.78
41703;BME280;861;48.808;9.006;2023-08-31T00:27:19;96598.56;;;15.99;83.61
41703;BME280;861;48.808;9.006;2023-08-31T00:29:47;96601.75;;;15.98;82.55
41703;BME280;861;48.808;9.006;2023-08-31T00:32:19;96608.00;;;15.98;83.23
41703;BME280;861;48.808;9.006;2023-08-31T00:34:49;96604.75;;;15.87;83.01
41703;BME280;861;48.808;9.006;2023-08-31T00:37:16;96606.22;;;15.76;83.53
41703;BME280;861;48.808;9.006;2023-08-31T00:39:43;96607.41;;;15.75;84.30
41703;BME280;861;48.808;9.006;2023-08-31T00:42:09;96610.22;;;16.03;81.60
41703;BME280;861;48.808;9.006;2023-08-31T00:44:36;96610.38;;;16.12;81.25
41703;BME280;861;48.808;9.006;2023-08-31T00:47:03;96608.84;;;16.11;82.21
41703;BME280;861;48.808;9.006;2023-08-31T00:49:30;96608.06;;;16.11;82.07
41703;BME280;861;48.808;9.006;2023-08-31T00:51:56;96600.59;;;16.11;81.70
41703;BME280;861;48.808;9.006;2023-08-31T00:54:23;96586.53;;;16.09;81.79
41703;BME280;861;48.808;9.006;2023-08-31T00:56:54;96587.25;;;15.97;81.58
41703;BME280;861;48.808;9.006;2023-08-31T00:59:21;96582.53;;;15.82;82.65
41703;BME280;861;48.808;9.006;2023-08-31T01:02:03;96591.88;;;15.84;82.75
41703;BME280;861;48.808;9.006;2023-08-31T01:13:47;96598.75;;;15.44;83.82
41703;BME280;861;48.808;9.006;2023-08-31T01:16:24;96598.19;;;15.33;84.27
41703;BME280;861;48.808;9.006;2023-08-31T01:18:53;96598.47;;;15.39;83.32
41703;BME280;861;48.808;9.006;2023-08-31T01:21:40;96602.34;;;15.41;83.49
41703;BME280;861;48.808;9.006;2023-08-31T01:24:12;96599.28;;;15.55;83.01
41703;BME280;861;48.808;9.006;2023-08-31T01:26:42;96602.94;;;15.49;82.83
41703;BME280;861;48.808;9.006;2023-08-31T01:29:09;96614.84;;;15.42;82.77
41703;BME280;861;48.808;9.006;2023-08-31T01:31:43;96612.53;;;15.41;82.65
41703;BME280;861;48.808;9.006;2023-08-31T01:34:11;96625.50;;;15.20;83.60
41703;BME280;861;48.808;9.006;2023-08-31T01:36:46;96620.09;;;15.17;84.87
41703;BME280;861;48.808;9.006;2023-08-31T01:39:35;96626.09;;;15.12;84.92
41703;BME280;861;48.808;9.006;2023-08-31T01:42:15;96625.78;;;14.90;84.89
41703;BME280;861;48.808;9.006;2023-08-31T01:44:46;96625.53;;;14.81;85.19
41703;BME280;861;48.808;9.006;2023-08-31T01:47:16;96629.41;;;14.64;85.70
41703;BME280;861;48.808;9.006;2023-08-31T01:49:44;96628.50;;;14.71;85.66
41703;BME280;861;48.808;9.006;2023-08-31T01:52:11;96629.84;;;14.82;85.29
41703;BME280;861;48.808;9.006;2023-08-31T01:54:37;96635.53;;;14.91;85.12
41703;BME280;861;48.808;9.006;2023-08-31T01:57:04;96640.34;;;15.03;85.25
41703;BME280;861;48.808;9.006;2023-08-31T01:59:33;96634.72;;;15.30;82.76
41703;BME280;861;48.808;9.006;2023-08-31T02:02:01;96619.50;;;15.25;83.16
41703;BME280;861;48.808;9.006;2023-08-31T02:04:28;96627.00;;;15.05;84.71
41703;BME280;861;48.808;9.006;2023-08-31T02:06:54;96626.47;;;15.30;83.12
41703;BME280;861;48.808;9.006;2023-08-31T02:09:21;96628.66;;;15.39;82.89
41703;BME280;861;48.808;9.006;2023-08-31T02:11:48;96631.94;;;15.50;82.80
41703;BME280;861;48.808;9.006;2023-08-31T02:14:15;96635.78;;;15.52;82.25
41703;BME280;861;48.808;9.006;2023-08-31T02:16:41;96623.63;;;15.53;82.92
41703;BME280;861;48.808;9.006;2023-08-31T02:19:08;96625.66;;;15.49;82.73
41703;BME280;861;48.808;9.006;2023-08-31T02:21:34;96637.28;;;15.37;82.71
41703;BME280;861;48.808;9.006;2023-08-31T02:24:01;96630.81;;;15.47;82.57
41703;BME280;861;48.808;9.006;2023-08-31T02:26:27;96624.03;;;15.52;82.64
41703;BME280;861;48.808;9.006;2023-08-31T02:28:54;96624.56;;;15.47;83.18
41703;BME280;861;48.808;9.006;2023-08-31T02:31:20;96637.59;;;15.59;82.62
41703;BME280;861;48.808;9.006;2023-08-31T02:33:47;96638.13;;;15.54;82.25
41703;BME280;861;48.808;9.006;2023-08-31T02:36:15;96641.59;;;15.38;83.35
41703;BME280;861;48.808;9.006;2023-08-31T02:38:41;96645.41;;;15.24;84.70
41703;BME280;861;48.808;9.006;2023-08-31T02:41:08;96646.06;;;15.28;84.19
41703;BME280;861;48.808;9.006;2023-08-31T02:43:34;96651.25;;;15.26;84.21
41703;BME280;861;48.808;9.006;2023-08-31T02:46:02;96647.94;;;15.15;84.66
41703;BME280;861;48.808;9.006;2023-08-31T02:48:31;96659.31;;;15.33;84.07
41703;BME280;861;48.808;9.006;2023-08-31T02:50:59;96658.84;;;15.19;84.22
41703;BME280;861;48.808;9.006;2023-08-31T02:53:32;96652.66;;;15.15;85.27
41703;BME280;861;48.808;9.006;2023-08-31T02:55:59;96649.84;;;15.18;84.55
41703;BME280;861;48.808;9.006;2023-08-31T02:58:25;96656.69;;;15.10;84.87
41703;BME280;861;48.808;9.006;2023-08-31T03:00:52;96656.88;;;15.19;85.17
41703;BME280;861;48.808;9.006;2023-08-31T03:03:19;96656.38;;;15.24;84.72
41703;BME280;861;48.808;9.006;2023-08-31T03:05:46;96657.78;;;15.13;85.03
41703;BME280;861;48.808;9.006;2023-08-31T03:08:13;96658.44;;;15.20;84.60
41703;BME280;861;48.808;9.006;2023-08-31T03:10:40;96657.34;;;15.14;83.88
41703;BME280;861;48.808;9.006;2023-08-31T03:13:06;96656.75;;;15.07;84.33
41703;BME280;861;48.808;9.006;2023-08-31T03:15:34;96663.78;;;15.08;85.06
41703;BME280;861;48.808;9.006;2023-08-31T03:18:00;96660.06;;;14.98;84.91
41703;BME280;861;48.808;9.006;2023-08-31T03:20:27;96652.88;;;15.04;85.05
41703;BME280;861;48.808;9.006;2023-08-31T03:22:54;96665.69;;;15.11;84.52
41703;BME280;861;48.808;9.006;2023-08-31T03:25:21;96669.66;;;15.06;84.84
41703;BME280;861;48.808;9.006;2023-08-31T03:27:47;96669.97;;;14.92;85.27
41703;BME280;861;48.808;9.006;2023-08-31T03:30:14;96660.25;;;15.07;84.52
41703;BME280;861;48.808;9.006;2023-08-31T03:32:42;96660.75;;;15.02;84.68
41703;BME280;861;48.808;9.006;2023-08-31T03:35:09;96668.44;;;15.11;83.94
41703;BME280;861;48.808;9.006;2023-08-31T03:37:36;96665.28;;;15.28;83.59
41703;BME280;861;48.808;9.006;2023-08-31T03:40:02;96662.72;;;15.21;84.07
41703;BME280;861;48.808;9.006;2023-08-31T03:42:33;96654.13;;;15.19;84.11
41703;BME280;861;48.808;9.006;2023-08-31T03:45:00;96659.84;;;15.09;83.57
41703;BME280;861;48.808;9.006;2023-08-31T03:47:29;96669.53;;;14.94;84.57
41703;BME280;861;48.808;9.006;2023-08-31T03:49:56;96672.50;;;15.03;84.40
41703;BME280;861;48.808;9.006;2023-08-31T03:52:23;96666.22;;;15.22;83.23
41703;BME280;861;48.808;9.006;2023-08-31T03:54:52;96676.56;;;15.14;83.00
41703;BME280;861;48.808;9.006;2023-08-31T03:57:19;96681.97;;;15.18;84.00
41703;BME280;861;48.808;9.006;2023-08-31T03:59:46;96696.72;;;15.24;83.20
41703;BME280;861;48.808;9.006;2023-08-31T04:02:13;96691.19;;;15.27;82.79
41703;BME280;861;48.808;9.006;2023-08-31T04:04:40;96695.31;;;15.16;83.50
41703;BME280;861;48.808;9.006;2023-08-31T04:07:07;96693.44;;;15.32;83.03
41703;BME280;861;48.808;9.006;2023-08-31T04:09:33;96694.56;;;15.15;83.01
41703;BME280;861;48.808;9.006;2023-08-31T04:12:00;96701.38;;;14.88;84.46
41703;BME280;861;48.808;9.006;2023-08-31T04:14:28;96683.94;;;14.78;85.25
41703;BME280;861;48.808;9.006;2023-08-31T04:16:57;96685.16;;;14.97;84.52
41703;BME280;861;48.808;9.006;2023-08-31T04:19:24;96680.88;;;15.15;83.67
41703;BME280;861;48.808;9.006;2023-08-31T04:21:51;96693.31;;;15.20;84.44
41703;BME280;861;48.808;9.006;2023-08-31T04:24:17;96698.16;;;15.12;84.68
41703;BME280;861;48.808;9.006;2023-08-31T04:26:44;96711.78;;;14.77;86.03
41703;BME280;861;48.808;9.006;2023-08-31T04:29:11;96713.19;;;14.65;86.87
41703;BME280;861;48.808;9.006;2023-08-31T04:31:37;96701.94;;;14.60;86.55
41703;BME280;861;48.808;9.006;2023-08-31T04:34:05;96702.50;;;14.71;86.40
41703;BME280;861;48.808;9.006;2023-08-31T04:36:31;96701.53;;;14.81;86.05
41703;BME280;861;48.808;9.006;2023-08-31T04:38:58;96701.69;;;14.93;85.90
41703;BME280;861;48.808;9.006;2023-08-31T04:41:24;96702.84;;;14.92;85.37
41703;BME280;861;48.808;9.006;2023-08-31T04:43:51;96707.66;;;14.88;85.28
41703;BME280;861;48.808;9.006;2023-08-31T04:46:18;96711.38;;;14.98;84.76
41703;BME280;861;48.808;9.006;2023-08-31T04:48:44;96710.66;;;14.94;85.09
41703;BME280;861;48.808;9.006;2023-08-31T04:51:29;96704.84;;;15.11;85.01
41703;BME280;861;48.808;9.006;2023-08-31T04:53:59;96709.88;;;15.13;84.36
41703;BME280;861;48.808;9.006;2023-08-31T04:56:31;96717.78;;;14.91;84.88
41703;BME280;861;48.808;9.006;2023-08-31T04:59:00;96713.91;;;14.89;84.40
41703;BME280;861;48.808;9.006;2023-08-31T05:01:29;96719.59;;;15.17;83.37
41703;BME280;861;48.808;9.006;2023-08-31T05:03:56;96713.63;;;15.22;83.84
41703;BME280;861;48.808;9.006;2023-08-31T05:06:22;96711.22;;;15.24;83.22
41703;BME280;861;48.808;9.006;2023-08-31T05:08:49;96722.28;;;15.21;83.15
41703;BME280;861;48.808;9.006;2023-08-31T05:11:16;96723.75;;;15.06;84.33
41703;BME280;861;48.808;9.006;2023-08-31T05:13:43;96725.03;;;15.01;84.39
41703;BME280;861;48.808;9.006;2023-08-31T05:16:09;96738.78;;;15.17;83.65
41703;BME280;861;48.808;9.006;2023-08-31T05:18:37;96738.22;;;14.87;85.15
41703;BME280;861;48.808;9.006;2023-08-31T05:21:04;96730.44;;;15.05;83.90
41703;BME280;861;48.808;9.006;2023-08-31T05:23:31;96740.56;;;15.08;83.34
41703;BME280;861;48.808;9.006;2023-08-31T05:25:59;96755.69;;;14.96;84.67
41703;BME280;861;48.808;9.006;2023-08-31T05:28:28;96751.56;;;14.85;84.92
41703;BME280;861;48.808;9.006;2023-08-31T05:30:57;96756.63;;;14.86;85.23
41703;BME280;861;48.808;9.006;2023-08-31T05:33:26;96757.22;;;14.97;84.25
41703;BME280;861;48.808;9.006;2023-08-31T05:35:55;96758.22;;;15.07;83.66
41703;BME280;861;48.808;9.006;2023-08-31T05:38:22;96751.03;;;15.13;83.60
41703;BME280;861;48.808;9.006;2023-08-31T05:40:49;96757.22;;;14.97;85.28
41703;BME280;861;48.808;9.006;2023-08-31T05:43:17;96763.84;;;15.00;85.05
41703;BME280;861;48.808;9.006;2023-08-31T05:45:43;96760.44;;;14.92;85.78
41703;BME280;861;48.808;9.006;2023-08-31T05:48:10;96760.44;;;14.92;85.05
41703;BME280;861;48.808;9.006;2023-08-31T05:50:36;96767.91;;;14.92;85.45
41703;BME280;861;48.808;9.006;2023-08-31T05:53:03;96769.38;;;14.96;85.11
41703;BME280;861;48.808;9.006;2023-08-31T05:55:31;96773.56;;;14.81;85.87
41703;BME280;861;48.808;9.006;2023-08-31T05:57:59;96770.28;;;14.90;85.83
41703;BME280;861;48.808;9.006;2023-08-31T06:00:26;96772.13;;;14.96;85.75
41703;BME280;861;48.808;9.006;2023-08-31T06:02:53;96774.97;;;14.89;86.11
41703;BME280;861;48.808;9.006;2023-08-31T06:05:19;96763.47;;;14.98;86.07
41703;BME280;861;48.808;9.006;2023-08-31T06:07:46;96774.31;;;15.05;84.96
41703;BME280;861;48.808;9.006;2023-08-31T06:10:12;96775.53;;;15.23;84.28
41703;BME280;861;48.808;9.006;2023-08-31T06:12:41;96778.13;;;15.11;84.99
41703;BME280;861;48.808;9.006;2023-08-31T06:15:08;96784.31;;;15.15;84.38
41703;BME280;861;48.808;9.006;2023-08-31T06:17:35;96780.72;;;15.18;85.28
41703;BME280;861;48.808;9.006;2023-08-31T06:20:02;96776.97;;;15.08;85.34
41703;BME280;861;48.808;9.006;2023-08-31T06:22:31;96781.63;;;15.11;85.61
41703;BME280;861;48.808;9.006;2023-08-31T06:24:58;96781.13;;;15.16;86.62
41703;BME280;861;48.808;9.006;2023-08-31T06:27:24;96779.44;;;15.22;86.64
41703;BME280;861;48.808;9.006;2023-08-31T06:29:51;96774.94;;;15.32;86.06
41703;BME280;861;48.808;9.006;2023-08-31T06:32:18;96777.53;;;15.43;85.15
41703;BME280;861;48.808;9.006;2023-08-31T06:34:46;96786.31;;;15.54;85.48
41703;BME280;861;48.808;9.006;2023-08-31T06:37:12;96790.00;;;15.63;85.51
41703;BME280;861;48.808;9.006;2023-08-31T06:39:39;96800.97;;;15.83;84.74
41703;BME280;861;48.808;9.006;2023-08-31T06:42:07;96806.22;;;15.93;83.63
41703;BME280;861;48.808;9.006;2023-08-31T06:44:34;96801.56;;;16.10;83.55
41703;BME280;861;48.808;9.006;2023-08-31T06:47:01;96814.53;;;16.25;82.91
41703;BME280;861;48.808;9.006;2023-08-31T06:49:29;96819.16;;;16.48;82.70
41703;BME280;861;48.808;9.006;2023-08-31T06:51:59;96814.50;;;16.61;81.23
41703;BME280;861;48.808;9.006;2023-08-31T06:54:26;96806.47;;;16.34;81.59
41703;BME280;861;48.808;9.006;2023-08-31T06:56:53;96809.91;;;16.22;80.62
41703;BME280;861;48.808;9.006;2023-08-31T06:59:19;96807.16;;;16.22;81.69
41703;BME280;861;48.808;9.006;2023-08-31T07:01:46;96808.00;;;16.19;81.58
41703;BME280;861;48.808;9.006;2023-08-31T07:04:12;96806.81;;;16.20;79.15
41703;BME280;861;48.808;9.006;2023-08-31T07:06:39;96814.69;;;16.18;80.38
41703;BME280;861;48.808;9.006;2023-08-31T07:09:06;96806.63;;;16.11;82.48
41703;BME280;861;48.808;9.006;2023-08-31T07:11:34;96807.16;;;16.22;81.09
41703;BME280;861;48.808;9.006;2023-08-31T07:14:01;96817.47;;;16.34;80.79
41703;BME280;861;48.808;9.006;2023-08-31T07:16:28;96812.25;;;16.40;80.59
41703;BME280;861;48.808;9.006;2023-08-31T07:18:54;96826.84;;;16.37;80.26
41703;BME280;861;48.808;9.006;2023-08-31T07:21:21;96812.53;;;16.61;77.57
41703;BME280;861;48.808;9.006;2023-08-31T07:23:48;96816.31;;;16.67;77.97
41703;BME280;861;48.808;9.006;2023-08-31T07:26:15;96826.50;;;16.83;75.32
41703;BME280;861;48.808;9.006;2023-08-31T07:28:42;96830.56;;;16.62;77.59
41703;BME280;861;48.808;9.006;2023-08-31T07:31:09;96832.47;;;16.65;78.81
41703;BME280;861;48.808;9.006;2023-08-31T07:33:36;96834.31;;;16.36;76.79
41703;BME280;861;48.808;9.006;2023-08-31T07:36:04;96837.69;;;16.60;75.30
41703;BME280;861;48.808;9.006;2023-08-31T07:38:33;96839.84;;;16.52;75.54
41703;BME280;861;48.808;9.006;2023-08-31T07:41:01;96836.31;;;16.52;75.56
41703;BME280;861;48.808;9.006;2023-08-31T07:43:27;96839.78;;;16.56;76.10
41703;BME280;861;48.808;9.006;2023-08-31T07:45:55;96840.97;;;16.87;73.37
41703;BME280;861;48.808;9.006;2023-08-31T07:48:22;96844.16;;;16.86;74.73
41703;BME280;861;48.808;9.006;2023-08-31T07:50:49;96842.06;;;17.06;76.14
41703;BME280;861;48.808;9.006;2023-08-31T07:53:16;96847.03;;;17.11;74.55
41703;BME280;861;48.808;9.006;2023-08-31T07:55:52;96848.50;;;17.15;75.26
41703;BME280;861;48.808;9.006;2023-08-31T07:58:28;96857.41;;;17.19;73.29
41703;BME280;861;48.808;9.006;2023-08-31T08:00:56;96850.09;;;17.29;71.25
41703;BME280;861;48.808;9.006;2023-08-31T08:03:24;96845.94;;;17.37;70.89
41703;BME280;861;48.808;9.006;2023-08-31T08:05:52;96842.47;;;17.20;72.73
41703;BME280;861;48.808;9.006;2023-08-31T08:08:18;96853.97;;;17.47;73.42
41703;BME280;861;48.808;9.006;2023-08-31T08:10:45;96853.66;;;17.58;70.58
41703;BME280;861;48.808;9.006;2023-08-31T08:13:12;96867.09;;;17.56;66.94
41703;BME280;861;48.808;9.006;2023-08-31T08:15:39;96872.69;;;17.81;67.14
41703;BME280;861;48.808;9.006;2023-08-31T08:18:06;96862.09;;;17.51;67.32
41703;BME280;861;48.808;9.006;2023-08-31T08:20:32;96869.84;;;17.56;68.30
41703;BME280;861;48.808;9.006;2023-08-31T08:22:59;96863.09;;;17.85;67.57
41703;BME280;861;48.808;9.006;2023-08-31T08:25:26;96862.28;;;18.01;68.19
41703;BME280;861;48.808;9.006;2023-08-31T08:27:52;96873.16;;;18.04;66.04
41703;BME280;861;48.808;9.006;2023-08-31T08:30:19;96878.63;;;17.79;66.37
41703;BME280;861;48.808;9.006;2023-08-31T08:32:45;96873.00;;;17.83;67.47
41703;BME280;861;48.808;9.006;2023-08-31T08:35:12;96869.63;;;17.91;66.74
41703;BME280;861;48.808;9.006;2023-08-31T08:37:39;96871.94;;;17.93;66.68
41703;BME280;861;48.808;9.006;2023-08-31T08:40:07;96868.09;;;18.03;68.50
41703;BME280;861;48.808;9.006;2023-08-31T08:42:42;96868.88;;;18.03;67.51
41703;BME280;861;48.808;9.006;2023-08-31T08:45:15;96876.22;;;18.35;60.10
41703;BME280;861;48.808;9.006;2023-08-31T08:47:47;96873.84;;;18.08;62.35
41703;BME280;861;48.808;9.006;2023-08-31T08:50:14;96878.84;;;18.26;60.52
41703;BME280;861;48.808;9.006;2023-08-31T08:52:42;96880.81;;;18.25;60.49
41703;BME280;861;48.808;9.006;2023-08-31T08:55:10;96886.44;;;18.22;61.94
41703;BME280;861;48.808;9.006;2023-08-31T08:57:37;96877.97;;;18.29;57.25
41703;BME280;861;48.808;9.006;2023-08-31T09:00:05;96878.53;;;18.37;58.73
41703;BME280;861;48.808;9.006;2023-08-31T09:02:33;96887.50;;;18.66;55.30
41703;BME280;861;48.808;9.006;2023-08-31T09:04:59;96890.91;;;18.70;58.53
41703;BME280;861;48.808;9.006;2023-08-31T09:07:33;96889.81;;;18.67;59.61
41703;BME280;861;48.808;9.006;2023-08-31T09:10:03;96897.50;;;18.97;56.65
41703;BME280;861;48.808;9.006;2023-08-31T09:12:30;96904.34;;;19.05;55.24
41703;BME280;861;48.808;9.006;2023-08-31T09:15:05;96906.13;;;18.87;56.70
41703;BME280;861;48.808;9.006;2023-08-31T09:17:43;96899.19;;;18.82;57.75
41703;BME280;861;48.808;9.006;2023-08-31T09:20:11;96900.84;;;18.92;56.19
41703;BME280;861;48.808;9.006;2023-08-31T09:22:42;96916.63;;;18.79;56.45
41703;BME280;861;48.808;9.006;2023-08-31T09:25:13;96914.84;;;18.73;59.23
41703;BME280;861;48.808;9.006;2023-08-31T09:27:40;96901.81;;;19.11;56.40
41703;BME280;861;48.808;9.006;2023-08-31T09:30:11;96898.28;;;18.98;56.96
41703;BME280;861;48.808;9.006;2023-08-31T09:32:38;96905.13;;;18.93;57.88
41703;BME280;861;48.808;9.006;2023-08-31T09:35:10;96901.59;;;18.93;60.41
41703;BME280;861;48.808;9.006;2023-08-31T09:37:37;96905.47;;;19.08;54.00
41703;BME280;861;48.808;9.006;2023-08-31T09:40:04;96912.09;;;18.85;55.52
41703;BME280;861;48.808;9.006;2023-08-31T09:42:37;96918.03;;;18.96;57.84
41703;BME280;861;48.808;9.006;2023-08-31T09:45:05;96914.28;;;19.28;59.02
41703;BME280;861;48.808;9.006;2023-08-31T09:47:32;96917.97;;;19.46;63.62
41703;BME280;861;48.808;9.006;2023-08-31T09:50:02;96908.97;;;19.89;57.48
41703;BME280;861;48.808;9.006;2023-08-31T09:52:30;96913.03;;;20.19;54.29
41703;BME280;861;48.808;9.006;2023-08-31T09:55:01;96916.00;;;20.24;53.74
41703;BME280;861;48.808;9.006;2023-08-31T09:57:32;96896.97;;;20.26;55.07
41703;BME280;861;48.808;9.006;2023-08-31T10:00:00;96912.78;;;20.26;52.54
41703;BME280;861;48.808;9.006;2023-08-31T10:02:30;96908.94;;;20.54;55.40
41703;BME280;861;48.808;9.006;2023-08-31T10:05:00;96908.28;;;20.80;51.90
41703;BME280;861;48.808;9.006;2023-08-31T10:07:27;96921.56;;;20.85;52.69
41703;BME280;861;48.808;9.006;2023-08-31T10:09:57;96916.56;;;20.71;52.94
41703;BME280;861;48.808;9.006;2023-08-31T10:12:25;96925.81;;;20.77;54.08
41703;BME280;861;48.808;9.006;2023-08-31T10:14:55;96922.72;;;20.97;53.37
41703;BME280;861;48.808;9.006;2023-08-31T10:17:25;96929.19;;;21.12;53.04
41703;BME280;861;48.808;9.006;2023-08-31T10:19:55;96922.47;;;21.13;52.64
41703;BME280;861;48.808;9.006;2023-08-31T10:22:22;96923.41;;;21.37;52.06
41703;BME280;861;48.808;9.006;2023-08-31T10:25:01;96923.38;;;21.19;52.42
41703;BME280;861;48.808;9.006;2023-08-31T10:27:42;96923.25;;;20.83;53.66
41703;BME280;861;48.808;9.006;2023-08-31T10:35:51;96921.31;;;20.71;51.31
41703;BME280;861;48.808;9.006;2023-08-31T10:38:32;96915.28;;;20.54;52.14
41703;BME280;861;48.808;9.006;2023-08-31T10:41:19;96926.25;;;20.15;52.60
41703;BME280;861;48.808;9.006;2023-08-31T10:43:57;96923.41;;;20.27;52.38
41703;BME280;861;48.808;9.006;2023-08-31T10:46:43;96927.47;;;20.14;53.90
41703;BME280;861;48.808;9.006;2023-08-31T10:51:46;96923.19;;;20.00;55.88
41703;BME280;861;48.808;9.006;2023-08-31T10:54:24;96931.25;;;19.73;54.07
41703;BME280;861;48.808;9.006;2023-08-31T11:02:44;96931.03;;;20.45;53.04
41703;BME280;861;48.808;9.006;2023-08-31T11:05:12;96922.81;;;20.32;54.33
41703;BME280;861;48.808;9.006;2023-08-31T11:07:46;96924.69;;;20.66;55.54
41703;BME280;861;48.808;9.006;2023-08-31T11:10:23;96929.69;;;20.49;54.49
41703;BME280;861;48.808;9.006;2023-08-31T11:12:55;96919.06;;;20.48;53.11
41703;BME280;861;48.808;9.006;2023-08-31T11:15:26;96919.53;;;20.46;54.48
41703;BME280;861;48.808;9.006;2023-08-31T11:17:56;96914.16;;;20.52;54.59
41703;BME280;861;48.808;9.006;2023-08-31T11:20:25;96905.72;;;20.86;53.08
41703;BME280;861;48.808;9.006;2023-08-31T11:22:55;96900.09;;;20.98;55.32
41703;BME280;861;48.808;9.006;2023-08-31T11:25:22;96904.47;;;20.87;56.11
41703;BME280;861;48.808;9.006;2023-08-31T11:28:02;96904.59;;;20.74;53.34
41703;BME280;861;48.808;9.006;2023-08-31T11:30:37;96900.66;;;20.54;54.46
41703;BME280;861;48.808;9.006;2023-08-31T11:33:06;96903.19;;;20.39;54.33
41703;BME280;861;48.808;9.006;2023-08-31T11:35:40;96906.97;;;20.54;54.35
41703;BME280;861;48.808;9.006;2023-08-31T11:38:10;96906.31;;;20.50;55.03
41703;BME280;861;48.808;9.006;2023-08-31T11:40:37;96909.19;;;20.68;54.20
41703;BME280;861;48.808;9.006;2023-08-31T11:43:06;96900.31;;;20.52;52.88
41703;BME280;861;48.808;9.006;2023-08-31T11:45:36;96904.91;;;20.46;54.64
41703;BME280;861;48.808;9.006;2023-08-31T11:48:06;96896.63;;;20.46;53.56
41703;BME280;861;48.808;9.006;2023-08-31T11:50:34;96898.59;;;20.15;56.59
41703;BME280;861;48.808;9.006;2023-08-31T11:53:01;96903.34;;;20.14;57.49
41703;BME280;861;48.808;9.006;2023-08-31T11:55:28;96907.50;;;19.97;57.18
41703;BME280;861;48.808;9.006;2023-08-31T11:57:55;96908.91;;;20.02;54.67
41703;BME280;861;48.808;9.006;2023-08-31T12:00:23;96905.63;;;19.94;55.42
41703;BME280;861;48.808;9.006;2023-08-31T12:03:01;96911.69;;;19.80;54.08
41703;BME280;861;48.808;9.006;2023-08-31T12:05:50;96905.69;;;19.82;54.50
41703;BME280;861;48.808;9.006;2023-08-31T12:08:26;96915.00;;;19.97;56.09
41703;BME280;861;48.808;9.006;2023-08-31T12:10:54;96902.75;;;19.98;54.33
41703;BME280;861;48.808;9.006;2023-08-31T12:13:27;96900.47;;;20.48;54.67
41703;BME280;861;48.808;9.006;2023-08-31T12:15:57;96897.00;;;20.96;54.06
41703;BME280;861;48.808;9.006;2023-08-31T12:18:24;96897.41;;;21.44;56.64
41703;BME280;861;48.808;9.006;2023-08-31T12:20:53;96897.00;;;21.90;51.26
41703;BME280;861;48.808;9.006;2023-08-31T12:23:20;96891.91;;;22.07;52.61
41703;BME280;861;48.808;9.006;2023-08-31T12:25:54;96898.75;;;22.47;55.83
41703;BME280;861;48.808;9.006;2023-08-31T12:28:23;96890.09;;;22.96;51.07
41703;BME280;861;48.808;9.006;2023-08-31T12:30:51;96898.88;;;22.62;49.15
41703;BME280;861;48.808;9.006;2023-08-31T12:33:20;96898.19;;;22.34;49.42
41703;BME280;861;48.808;9.006;2023-08-31T12:35:48;96894.00;;;22.39;48.05
41703;BME280;861;48.808;9.006;2023-08-31T12:38:15;96887.75;;;21.84;49.82
41703;BME280;861;48.808;9.006;2023-08-31T12:40:42;96896.22;;;21.45;51.75
41703;BME280;861;48.808;9.006;2023-08-31T12:43:09;96902.78;;;21.29;53.11
41703;BME280;861;48.808;9.006;2023-08-31T12:45:36;96895.03;;;21.06;53.45
41703;BME280;861;48.808;9.006;2023-08-31T12:48:03;96891.50;;;21.05;52.65
41703;BME280;861;48.808;9.006;2023-08-31T12:50:30;96899.13;;;20.92;53.39
41703;BME280;861;48.808;9.006;2023-08-31T12:52:57;96899.34;;;21.07;53.63
41703;BME280;861;48.808;9.006;2023-08-31T12:55:23;96903.81;;;21.13;51.89
41703;BME280;861;48.808;9.006;2023-08-31T12:57:50;96904.72;;;21.01;52.50
41703;BME280;861;48.808;9.006;2023-08-31T13:00:17;96901.69;;;20.78;52.76
41703;BME280;861;48.808;9.006;2023-08-31T13:02:44;96897.53;;;20.73;52.99
41703;BME280;861;48.808;9.006;2023-08-31T13:05:11;96896.97;;;20.87;53.66
41703;BME280;861;48.808;9.006;2023-08-31T13:07:39;96895.34;;;21.08;55.38
41703;BME280;861;48.808;9.006;2023-08-31T13:10:06;96903.41;;;21.33;51.66
41703;BME280;861;48.808;9.006;2023-08-31T13:12:34;96894.78;;;21.40;52.81
41703;BME280;861;48.808;9.006;2023-08-31T13:15:01;96900.03;;;21.65;51.89
41703;BME280;861;48.808;9.006;2023-08-31T13:17:29;96891.47;;;21.99;51.30
41703;BME280;861;48.808;9.006;2023-08-31T13:19:59;96897.22;;;22.46;50.02
41703;BME280;861;48.808;9.006;2023-08-31T13:22:28;96891.47;;;22.68;51.36
41703;BME280;861;48.808;9.006;2023-08-31T13:24:54;96885.25;;;23.15;50.13
41703;BME280;861;48.808;9.006;2023-08-31T13:27:21;96881.78;;;23.29;48.87
41703;BME280;861;48.808;9.006;2023-08-31T13:29:47;96882.13;;;22.89;48.33
41703;BME280;861;48.808;9.006;2023-08-31T13:32:14;96883.06;;;22.35;49.86
41703;BME280;861;48.808;9.006;2023-08-31T13:34:40;96893.59;;;22.13;52.21
41703;BME280;861;48.808;9.006;2023-08-31T13:37:07;96885.88;;;22.08;50.85
41703;BME280;861;48.808;9.006;2023-08-31T13:39:36;96884.22;;;21.84;50.70
41703;BME280;861;48.808;9.006;2023-08-31T13:42:03;96882.19;;;21.66;50.23
41703;BME280;861;48.808;9.006;2023-08-31T13:44:31;96877.56;;;21.45;50.59
41703;BME280;861;48.808;9.006;2023-08-31T13:46:57;96875.38;;;21.22;50.49
41703;BME280;861;48.808;9.006;2023-08-31T13:49:24;96875.94;;;20.99;51.85
41703;BME280;861;48.808;9.006;2023-08-31T13:51:50;96877.75;;;20.93;52.02